Latest Coastal Weather Observations for Moorabbin Airport

IDV60701

Issued at 2:02 am EST Thursday 1 September 2016 (issued every 10 minutes, with the page automatically refreshed every 10 minutes)

About coastal observations | Map of coastal stations | Coastal observations for VIC | Marine services | Other Formats
Station Details ID: 086077 Name: MOORABBIN AIRPORT Lat: -37.98 Lon: 145.10 Height: 12.1 m
Data from the previous 72 hours. | See also: Recent months at Moorabbin Airport
Date/Time
EST
Temp
°C
Wind Pressure Rain since
9am
mm
Weather Cloud Vis
km
Sea
Height
m
Swell
Dir  Spd
kts
Gust
kts
hPa Trend Height
m
Period
s
Dir
01/02:00am 13.0 WNW 8 10 1017.3 - 0.0 - Partly cloudy 10 - - - -
01/01:30am 13.1 WNW 7 11 1017.3 - 0.0 - Partly cloudy 10 - - - -
01/01:00am 13.3 W 7 10 1017.2 - 0.0 - Partly cloudy 10 - - - -
01/12:30am 13.1 W 6 9 1017.1 - 0.0 - Partly cloudy 10 - - - -
01/12:00am 13.2 WNW 6 8 1016.9 - 0.0 - Cloudy 10 - - - -
 
Date/Time
EST
Temp
°C
Wind Pressure Rain since
9am
mm
Weather Cloud Vis
km
Sea
Height
m
Swell
Dir  Spd
kts
Gust
kts
hPa Trend Height
m
Period
s
Dir
31/11:30pm 13.0 WNW 6 9 1016.8 - 0.0 - Partly cloudy 10 - - - -
31/11:00pm 12.9 W 7 9 1016.7 - 0.0 - Partly cloudy 10 - - - -
31/10:30pm 13.5 W 7 9 1016.6 - 0.0 - Partly cloudy 10 - - - -
31/10:00pm 13.9 W 8 12 1016.5 - 0.0 - Partly cloudy 10 - - - -
31/09:30pm 14.4 WNW 6 10 1016.3 - 0.0 - Partly cloudy 10 - - - -
31/09:00pm 14.7 W 8 11 1016.2 - 0.0 - Cloudy 10 - - - -
31/08:30pm 14.6 W 7 10 1016.0 - 0.0 - Cloudy 10 - - - -
31/08:00pm 14.4 W 7 11 1015.7 - 0.0 - Partly cloudy 10 - - - -
31/07:30pm 14.7 W 7 11 1015.2 - 0.0 - Partly cloudy 10 - - - -
31/07:00pm 14.8 W 9 13 1014.8 - 0.0 - Partly cloudy 10 - - - -
31/06:30pm 15.0 W 7 11 1014.6 - 0.0 - Cloudy 10 - - - -
31/06:00pm 15.2 W 9 13 1014.2 - 0.0 - - 10 - - - -
31/05:30pm 15.6 W 10 16 1013.9 - 0.0 - Partly cloudy 10 - - - -
31/05:00pm 16.0 WSW 12 19 1013.6 - 0.0 - Partly cloudy 10 - - - -
31/04:30pm 16.7 W 12 18 1013.1 - 0.0 - - 10 - - - -
31/04:00pm 16.6 WSW 11 17 1013.0 - 0.0 - Partly cloudy 10 - - - -
31/03:30pm 15.8 WSW 12 18 1012.9 - 0.0 - Partly cloudy 10 - - - -
31/03:00pm 15.3 WSW 13 19 1012.9 - 0.0 - Cloudy 10 - - - -
31/02:30pm 16.5 WSW 11 15 1012.4 - 0.0 - Cloudy 10 - - - -
31/02:00pm 16.4 WSW 10 15 1012.3 - 0.0 - Cloudy 10 - - - -
31/01:30pm 16.5 WSW 11 15 1012.4 - 0.0 - Partly cloudy 10 - - - -
31/01:00pm 17.0 WSW 10 16 1012.5 - 0.0 - Partly cloudy 10 - - - -
31/12:30pm 16.4 WSW 12 18 1012.8 - 0.0 - Partly cloudy 10 - - - -
31/12:00pm 18.1 WNW 10 16 1012.9 - 0.0 - Cloudy 10 - - - -
31/11:30am 18.0 WNW 12 21 1013.2 - 0.0 - Partly cloudy 10 - - - -
31/11:00am 17.3 WNW 11 16 1013.3 - 0.0 - Partly cloudy 10 - - - -
31/10:30am 17.3 WNW 10 16 1013.4 - 0.0 - Partly cloudy 10 - - - -
31/10:00am 17.8 WNW 10 14 1013.5 - 0.0 - Partly cloudy 10 - - - -
31/09:30am 16.5 NNW 9 13 1013.5 - 0.0 - Partly cloudy 10 - - - -
31/09:00am 15.9 NNW 10 13 1013.2 - 4.4 - Cloudy 10 - - - -
31/08:30am 15.7 NNW 11 16 1012.9 - 4.4 - Partly cloudy 10 - - - -
31/08:00am 14.9 N 11 16 1012.5 - 4.4 - Cloudy 10 - - - -
31/07:30am 13.8 N 7 9 1012.5 - 4.4 - Cloudy 10 - - - -
31/07:00am 12.2 N 7 8 1012.2 - 4.4 - Cloudy 10 - - - -
31/06:30am 12.3 N 7 11 1012.1 - 4.4 - Cloudy 10 - - - -
31/06:00am 11.0 N 4 6 1011.8 - 4.4 - Mostly clear 10 - - - -
31/05:30am 12.0 N 4 6 1011.6 - 4.4 - Partly cloudy 10 - - - -
31/05:00am 12.8 N 7 8 1011.6 - 4.4 - Cloudy 10 - - - -
31/04:30am 12.6 N 4 6 1011.8 - 4.4 - Partly cloudy 10 - - - -
31/04:00am 13.0 N 6 8 1011.8 - 4.4 - Partly cloudy 10 - - - -
31/03:30am 13.3 NNW 8 12 1011.6 - 4.4 - - 10 - - - -
31/03:00am 13.5 N 9 12 1011.7 - 4.4 - - 10 - - - -
31/02:30am 14.1 N 11 16 1012.0 - 4.4 - Partly cloudy 10 - - - -
31/02:00am 14.3 N 13 18 1012.2 - 4.4 - Partly cloudy 10 - - - -
31/01:30am 14.2 N 9 13 1012.5 - 4.4 - Partly cloudy 10 - - - -
31/01:00am 14.1 N 11 16 1012.4 - 4.4 - Partly cloudy 10 - - - -
31/12:30am 13.8 N 8 11 1012.7 - 4.4 - Partly cloudy 10 - - - -
31/12:00am 13.5 N 7 10 1012.9 - 4.4 Rain Partly cloudy 10 - - - -
 
Date/Time
EST
Temp
°C
Wind Pressure Rain since
9am
mm
Weather Cloud Vis
km
Sea
Height
m
Swell
Dir  Spd
kts
Gust
kts
hPa Trend Height
m
Period
s
Dir
30/11:30pm 13.6 N 7 10 1013.2 - 4.0 - Partly cloudy 10 - - - -
30/11:00pm 13.7 N 8 11 1013.4 - 3.4 - Partly cloudy 10 - - - -
30/10:30pm 13.5 N 9 12 1013.6 - 3.2 - Partly cloudy 8 - - - -
30/10:00pm 13.6 N 10 14 1013.7 - 1.8 - Partly cloudy 10 - - - -
30/09:30pm 14.1 N 15 19 1013.6 - 1.6 - Cloudy 10 - - - -
30/09:00pm 14.9 N 15 19 1013.5 - 1.4 Recent precip. Cloudy 10 - - - -
30/08:30pm 15.0 N 15 22 1013.4 - 1.4 - Cloudy 10 - - - -
30/08:00pm 14.9 N 15 20 1013.6 - 1.2 - Partly cloudy 10 - - - -
30/07:44pm 15.1 N 15 25 1013.6 - 1.2 - Partly cloudy 10 - - - -
30/07:30pm 15.2 NNE 17 24 1013.4 - 1.2 - Partly cloudy 10 - - - -
30/07:00pm 15.1 NNE 16 23 1013.9 - 1.2 - Partly cloudy 10 - - - -
30/06:30pm 15.3 N 16 22 1014.0 - 1.2 - Partly cloudy 10 - - - -
30/06:00pm 15.3 N 15 20 1013.7 - 1.2 - Cloudy 10 - - - -
30/05:30pm 15.4 N 21 27 1013.4 - 1.2 - Partly cloudy 10 - - - -
30/05:00pm 15.6 N 18 23 1013.6 - 1.2 - Partly cloudy 10 - - - -
30/04:30pm 14.9 N 13 21 1014.2 - 1.2 - Cloudy 10 - - - -
30/04:00pm 15.6 N 16 25 1014.9 - 0.8 - Partly cloudy 10 - - - -
30/03:31pm 15.9 N 18 28 1014.9 - 0.8 - Partly cloudy 10 - - - -
30/03:30pm 16.1 N 19 28 1014.8 - 0.8 - Partly cloudy 10 - - - -
30/03:00pm 15.8 NNE 13 20 1015.3 - 0.8 - Cloudy 10 - - - -
30/02:30pm 15.8 N 15 21 1015.6 - 0.8 - Cloudy 10 - - - -
30/02:00pm 15.9 NNE 12 17 1016.3 - 0.8 - Partly cloudy 10 - - - -
30/01:30pm 15.6 N 10 14 1016.7 - 0.8 - Cloudy 10 - - - -
30/01:00pm 15.6 NNE 13 19 1016.7 - 0.8 - Partly cloudy 10 - - - -
30/12:30pm 15.0 NNE 12 16 1017.5 - 0.8 - Partly cloudy 10 - - - -
30/12:00pm 14.0 N 10 15 1018.6 - 0.8 Rain Cloudy 10 - - - -
30/11:30am 13.9 N 10 14 1019.4 - 0.4 - Partly cloudy 10 - - - -
30/11:00am 13.7 N 11 15 1019.7 - 0.2 - Partly cloudy 10 - - - -
30/10:30am 14.1 NNE 12 17 1019.9 - 0.0 - Cloudy 10 - - - -
30/10:00am 15.1 NNE 13 17 1019.9 - 0.0 - Cloudy 10 - - - -
30/09:30am 15.3 NNE 14 18 1019.6 - 0.0 - Cloudy 10 - - - -
30/09:00am 15.1 NNE 13 18 1020.0 - 0.0 - Mostly cloudy 10 - - - -
30/08:30am 12.6 ESE 5 6 1020.3 - 0.0 - - 10 - - - -
30/08:00am 12.1 ESE 4 5 1020.6 - 0.0 - - 10 - - - -
30/07:30am 11.2 ESE 7 8 1020.5 - 0.0 - - 10 - - - -
30/07:00am 12.6 NE 6 9 1020.6 - 0.0 - Partly cloudy 10 - - - -
30/06:30am 12.5 NE 8 10 1020.7 - 0.0 - - 10 - - - -
30/06:00am 11.8 ENE 6 7 1020.8 - 0.0 - Mostly cloudy 10 - - - -
30/05:30am 11.6 ENE 6 9 1020.3 - 0.0 - Cloudy 10 - - - -
30/05:00am 9.8 ESE 4 5 1020.6 - 0.0 - Cloudy 10 - - - -
30/04:30am 9.8 ESE 6 7 1020.4 - 0.0 - Partly cloudy 10 - - - -
30/04:00am 9.7 ESE 6 6 1020.4 - 0.0 - - 10 - - - -
30/03:30am 9.8 CALM 0 0 1020.8 - 0.0 - - 10 - - - -
30/03:00am 10.2 NNE 4 5 1021.2 - 0.0 - Cloudy 10 - - - -
30/02:30am 10.4 NNE 5 6 1021.3 - 0.0 - - 10 - - - -
30/02:00am 10.2 NE 6 7 1021.6 - 0.0 - - 10 - - - -
30/01:30am 10.4 NE 5 7 1021.5 - 0.0 - - 10 - - - -
30/01:00am 9.6 NE 4 6 1021.8 - 0.0 - - 10 - - - -
30/12:30am 9.9 NNE 5 6 1021.9 - 0.0 - - 10 - - - -
30/12:00am 10.4 NNE 5 6 1022.0 - 0.0 - Partly cloudy 10 - - - -
 
Date/Time
EST
Temp
°C
Wind Pressure Rain since
9am
mm
Weather Cloud Vis
km
Sea
Height
m
Swell
Dir  Spd
kts
Gust
kts
hPa Trend Height
m
Period
s
Dir
29/11:30pm 11.1 NNE 6 7 1022.6 - 0.0 - - 10 - - - -
29/11:00pm 10.4 NE 3 4 1022.7 - 0.0 - - 10 - - - -
29/10:30pm 11.7 NNE 5 6 1023.0 - 0.0 - - 10 - - - -
29/10:00pm 10.5 N 4 4 1022.8 - 0.0 - - 10 - - - -
29/09:30pm 12.0 NNE 4 5 1022.8 - 0.0 - - 10 - - - -
29/09:00pm 12.0 NE 5 6 1022.9 - 0.0 - - 10 - - - -
29/08:30pm 10.9 ENE 5 5 1022.7 - 0.0 - - 10 - - - -
29/08:00pm 12.7 NE 4 5 1022.9 - 0.0 - - 10 - - - -
29/07:30pm 12.9 NE 7 8 1022.8 - 0.0 - - 10 - - - -
29/07:00pm 13.5 NNE 7 8 1022.0 - 0.0 - - 10 - - - -
29/06:30pm 14.7 NNE 7 8 1021.8 - 0.0 - - 10 - - - -
29/06:00pm 15.8 N 9 13 1021.9 - 0.0 - - 10 - - - -
29/05:30pm 16.3 N 9 13 1021.7 - 0.0 - - 10 - - - -
29/05:00pm 17.5 N 11 15 1021.9 - 0.0 - - 10 - - - -
29/04:30pm 17.7 N 13 18 1021.7 - 0.0 - - 10 - - - -
29/04:00pm 17.8 N 14 17 1021.7 - 0.0 - - 10 - - - -
29/03:30pm 19.0 N 14 17 1021.7 - 0.0 - - 10 - - - -
29/03:00pm 18.0 N 13 18 1021.6 - 0.0 - Mostly clear 10 - - - -
29/02:30pm 18.7 N 15 19 1021.7 - 0.0 - Partly cloudy 10 - - - -
29/02:00pm 18.7 N 14 20 1022.1 - 0.0 - - 10 - - - -
29/01:30pm 19.1 N 12 16 1022.3 - 0.0 - Partly cloudy 10 - - - -
29/01:00pm 19.1 N 15 21 1022.6 - 0.0 - - 10 - - - -
29/12:30pm 16.8 N 13 16 1023.0 - 0.0 - - 10 - - - -
29/12:00pm 17.6 N 14 17 1023.3 - 0.0 - Cloudy 10 - - - -
29/11:30am 17.8 N 13 18 1023.6 - 0.0 - - 10 - - - -
29/11:00am 17.4 N 12 19 1024.1 - 0.0 - - 10 - - - -
29/10:30am 16.4 N 13 17 1024.4 - 0.0 - - 10 - - - -
29/10:00am 16.4 N 13 17 1024.7 - 0.0 - - 10 - - - -
29/09:30am 16.0 N 11 15 1024.8 - 0.0 - - 10 - - - -
29/09:00am 15.1 N 8 12 1024.8 - 0.0 - - 10 - - - -
29/08:30am 14.1 CALM 0 0 1024.8 - 0.0 - - 10 - - - -
29/08:00am 11.0 CALM 0 0 1024.4 - 0.0 - - 10 - - - -
29/07:30am 8.8 CALM 0 0 1024.1 - 0.0 - - 10 - - - -
29/07:00am 8.3 CALM 0 1 1023.6 - 0.0 - - 10 - - - -
29/06:30am 10.3 N 4 5 1023.2 - 0.0 - - 10 - - - -
29/06:00am 10.1 N 6 8 1022.9 - 0.0 - Mostly cloudy 10 - - - -
29/05:30am 11.5 N 11 14 1022.5 - 0.0 - - 10 - - - -
29/05:00am 10.8 N 9 11 1022.3 - 0.0 - - 10 - - - -
29/04:30am 10.1 N 9 11 1022.1 - 0.0 - - 10 - - - -
29/04:00am 10.1 NNE 8 11 1022.0 - 0.0 - - 10 - - - -
29/03:30am 10.2 NNE 9 11 1022.0 - 0.0 - - 10 - - - -
29/03:00am 9.8 N 9 10 1022.1 - 0.0 - - 10 - - - -
29/02:30am 9.6 N 6 9 1022.3 - 0.0 - - 10 - - - -

Other Formats:

Comma delimited format used in spreadsheet applications
http://www.bom.gov.au/fwo/IDV60701/IDV60701.94870.axf

JavaScript Object Notation format (JSON) in row-major order
http://www.bom.gov.au/fwo/IDV60701/IDV60701.94870.json